Time;durP1;ratioP1;P1;durP2;ratioP2;P2;SDS_P1;SDS_P2;PMS_P1;PMS_P2;Temp;Humidity;BMP_temperature;BMP_pressure;BME280_temperature;BME280_humidity;BME280_pressure;Samples;Min_cycle;Max_cycle;Signal;HPM_P1;HPM_P2
2022/08/03 00:01:53;;;;;;;5.15;1.50;;;26.80;59.20;;;;;;6247263;23;20012;-71
2022/08/03 00:04:18;;;;;;;4.68;1.60;;;26.80;59.30;;;;;;6246882;23;20000;-76
2022/08/03 00:06:44;;;;;;;4.30;1.50;;;26.80;59.50;;;;;;6247339;23;20000;-72
2022/08/03 00:09:10;;;;;;;5.13;1.60;;;26.70;59.20;;;;;;6247190;23;20035;-76
2022/08/03 00:11:37;;;;;;;4.38;1.65;;;26.70;59.00;;;;;;6247366;22;20008;-77
2022/08/03 00:14:08;;;;;;;2.92;1.60;;;26.70;59.00;;;;;;6247121;22;20008;-76
2022/08/03 00:16:33;;;;;;;2.05;1.40;;;26.70;59.00;;;;;;6247158;23;19996;-76
2022/08/03 00:19:00;;;;;;;3.60;1.60;;;26.70;58.90;;;;;;6246679;23;20004;-71
2022/08/03 00:21:26;;;;;;;3.50;1.60;;;26.70;58.80;;;;;;6247204;22;20068;-71
2022/08/03 00:23:51;;;;;;;2.13;1.30;;;26.60;58.50;;;;;;6247154;22;20384;-77
2022/08/03 00:26:17;;;;;;;2.85;1.42;;;26.60;57.70;;;;;;6247366;23;20004;-74
2022/08/03 00:28:43;;;;;;;1.88;1.45;;;26.60;57.80;;;;;;6247264;23;20016;-77
2022/08/03 00:31:08;;;;;;;1.88;1.40;;;26.60;57.90;;;;;;6246814;22;20004;-72
2022/08/03 00:33:34;;;;;;;2.83;1.60;;;26.60;58.00;;;;;;6246859;22;20008;-76
2022/08/03 00:36:00;;;;;;;3.15;1.50;;;26.60;58.10;;;;;;6246702;23;20146;-72
2022/08/03 00:38:28;;;;;;;2.55;1.50;;;26.60;58.50;;;;;;6246804;23;20019;-76
2022/08/03 00:40:55;;;;;;;4.03;1.40;;;26.50;58.30;;;;;;6245494;23;20007;-71
2022/08/03 00:43:24;;;;;;;2.38;1.58;;;26.60;58.20;;;;;;6246990;22;20019;-76
2022/08/03 00:45:50;;;;;;;5.22;1.33;;;26.50;58.30;;;;;;6246537;22;20007;-76
2022/08/03 00:48:15;;;;;;;1.83;1.25;;;26.50;58.40;;;;;;6246808;23;20000;-76
2022/08/03 00:50:42;;;;;;;3.80;1.60;;;26.50;58.70;;;;;;6247048;22;20008;-76
2022/08/03 00:53:11;;;;;;;1.65;1.50;;;26.50;58.80;;;;;;6247127;22;20012;-71
2022/08/03 00:55:38;;;;;;;2.47;1.40;;;26.50;58.70;;;;;;6246398;22;20004;-76
2022/08/03 00:58:05;;;;;;;2.63;1.40;;;26.40;58.80;;;;;;6245639;22;20011;-71
2022/08/03 01:00:34;;;;;;;2.45;1.45;;;26.40;59.10;;;;;;6243912;22;20011;-74
2022/08/03 01:03:01;;;;;;;2.75;1.70;;;26.40;59.00;;;;;;6243596;22;20043;-71
2022/08/03 01:05:27;;;;;;;2.30;1.50;;;26.30;58.90;;;;;;6245659;22;19997;-76
2022/08/03 01:08:09;;;;;;;2.22;1.40;;;26.30;59.30;;;;;;6246797;22;20004;-75
2022/08/03 01:10:53;;;;;;;2.15;1.27;;;26.30;60.30;;;;;;6246309;23;20007;-73
2022/08/03 01:13:37;;;;;;;5.03;1.70;;;26.20;60.30;;;;;;6246016;22;20000;-74
2022/08/03 01:16:37;;;;;;;4.13;1.60;;;26.20;60.40;;;;;;6246631;23;20004;-76
2022/08/03 01:19:31;;;;;;;6.35;1.60;;;26.20;60.70;;;;;;6246506;22;20000;-72
2022/08/03 01:22:12;;;;;;;2.03;1.55;;;26.10;60.60;;;;;;6246053;22;20015;-75
2022/08/03 01:24:56;;;;;;;3.42;1.60;;;26.10;60.80;;;;;;6246329;23;20012;-71
2022/08/03 01:27:44;;;;;;;4.82;1.70;;;26.10;61.30;;;;;;6246456;23;20023;-71
2022/08/03 01:30:11;;;;;;;3.08;1.60;;;26.00;61.30;;;;;;6246717;23;20012;-71
2022/08/03 01:32:55;;;;;;;2.50;1.48;;;26.00;61.20;;;;;;6246829;23;20378;-74
2022/08/03 01:35:28;;;;;;;4.65;1.60;;;26.00;61.10;;;;;;6246021;22;20004;-70
2022/08/03 01:37:59;;;;;;;1.88;1.40;;;26.00;61.00;;;;;;6246134;22;20087;-76
2022/08/03 01:40:27;;;;;;;2.67;1.70;;;25.90;61.10;;;;;;6245924;22;20008;-74
2022/08/03 01:42:56;;;;;;;5.88;1.60;;;25.90;61.10;;;;;;6245874;22;20008;-75
2022/08/03 01:45:23;;;;;;;3.67;1.55;;;25.90;61.20;;;;;;6246254;22;20003;-76
2022/08/03 01:47:50;;;;;;;2.28;1.40;;;25.80;61.20;;;;;;6246148;22;20020;-72
2022/08/03 01:50:23;;;;;;;3.72;1.73;;;25.80;61.30;;;;;;6246290;22;20008;-71
2022/08/03 01:52:50;;;;;;;2.65;1.70;;;25.80;61.40;;;;;;6246609;22;20304;-72
2022/08/03 01:55:18;;;;;;;5.00;2.05;;;25.80;61.30;;;;;;6246139;22;20011;-75
2022/08/03 01:57:47;;;;;;;4.68;1.95;;;25.80;61.20;;;;;;6246041;22;20000;-70
2022/08/03 02:00:13;;;;;;;3.63;1.83;;;25.80;61.10;;;;;;6246080;22;20008;-74
2022/08/03 02:02:57;;;;;;;5.63;2.00;;;25.70;60.90;;;;;;6246277;22;20020;-76
2022/08/03 02:05:25;;;;;;;3.35;1.70;;;25.70;61.20;;;;;;6245837;22;20000;-76
2022/08/03 02:07:52;;;;;;;4.40;1.67;;;25.70;61.40;;;;;;6245355;22;20038;-75
2022/08/03 02:10:19;;;;;;;9.57;1.92;;;25.70;61.50;;;;;;6245804;22;20083;-71
2022/08/03 02:12:48;;;;;;;3.35;1.90;;;25.60;61.40;;;;;;6246032;22;20047;-76
2022/08/03 02:15:16;;;;;;;7.97;2.20;;;25.60;61.80;;;;;;6246181;22;20003;-76
2022/08/03 02:17:45;;;;;;;4.05;2.00;;;25.60;62.10;;;;;;6246018;22;20311;-76
2022/08/03 02:20:12;;;;;;;4.38;1.90;;;25.60;62.30;;;;;;6245936;22;20123;-75
2022/08/03 02:22:40;;;;;;;2.50;1.70;;;25.50;62.20;;;;;;6246072;22;20334;-74
2022/08/03 02:25:08;;;;;;;6.03;1.88;;;25.50;62.00;;;;;;6246263;22;20019;-75
2022/08/03 02:27:37;;;;;;;2.95;1.80;;;25.50;61.80;;;;;;6245709;22;20098;-72
2022/08/03 02:30:07;;;;;;;4.53;1.60;;;25.50;61.60;;;;;;6245900;22;20000;-74
2022/08/03 02:32:39;;;;;;;6.28;1.80;;;25.50;61.70;;;;;;6245885;22;20426;-76
2022/08/03 02:35:09;;;;;;;4.95;2.00;;;25.50;61.60;;;;;;6246298;22;20008;-74
2022/08/03 02:37:43;;;;;;;6.18;1.80;;;25.40;61.90;;;;;;6245766;22;20301;-75
2022/08/03 02:40:12;;;;;;;4.85;1.90;;;25.40;62.40;;;;;;6245495;22;20011;-76
2022/08/03 02:42:39;;;;;;;6.72;1.95;;;25.40;62.60;;;;;;6245922;22;20024;-76
2022/08/03 02:45:12;;;;;;;8.65;1.80;;;25.40;62.50;;;;;;6245595;22;20024;-71
2022/08/03 02:47:40;;;;;;;4.95;1.50;;;25.30;62.60;;;;;;6245228;22;20004;-73
2022/08/03 02:50:11;;;;;;;4.57;1.70;;;25.30;62.90;;;;;;6245562;22;20008;-75
2022/08/03 02:52:38;;;;;;;3.42;1.67;;;25.30;62.80;;;;;;6244112;23;20384;-71
2022/08/03 02:55:06;;;;;;;3.40;1.50;;;25.30;62.70;;;;;;6245919;22;20128;-75
2022/08/03 02:57:34;;;;;;;2.45;1.50;;;25.30;62.60;;;;;;6245633;22;20004;-75
2022/08/03 03:00:01;;;;;;;4.53;1.50;;;25.20;62.70;;;;;;6245414;22;20055;-73
2022/08/03 03:02:27;;;;;;;2.55;1.40;;;25.20;62.70;;;;;;6245103;22;20016;-71
2022/08/03 03:04:55;;;;;;;2.67;1.63;;;25.20;62.20;;;;;;6245634;22;20003;-76
2022/08/03 03:07:21;;;;;;;3.83;1.85;;;25.20;62.80;;;;;;6245847;22;20012;-75
2022/08/03 03:09:48;;;;;;;7.90;1.70;;;25.20;63.00;;;;;;6245434;22;20003;-76
2022/08/03 03:12:15;;;;;;;1.92;1.70;;;25.10;63.00;;;;;;6245555;22;20015;-73
2022/08/03 03:14:41;;;;;;;5.03;1.80;;;25.10;63.00;;;;;;6245383;22;20351;-75
2022/08/03 03:17:16;;;;;;;2.20;1.50;;;25.00;63.30;;;;;;6245742;22;20059;-70
2022/08/03 03:19:44;;;;;;;3.45;1.60;;;25.00;63.40;;;;;;6243585;22;20418;-74
2022/08/03 03:22:10;;;;;;;3.70;1.60;;;24.90;63.40;;;;;;6245453;22;20082;-75
2022/08/03 03:24:38;;;;;;;8.30;1.83;;;24.90;63.50;;;;;;6245354;22;20008;-72
2022/08/03 03:27:04;;;;;;;4.55;1.70;;;24.90;63.70;;;;;;6244607;22;20070;-71
2022/08/03 03:29:31;;;;;;;8.25;1.88;;;24.80;64.10;;;;;;6245076;23;20006;-74
2022/08/03 03:31:57;;;;;;;3.13;1.95;;;24.80;64.10;;;;;;6245377;22;20008;-74
2022/08/03 03:34:23;;;;;;;2.53;1.63;;;24.80;63.80;;;;;;6245341;23;20076;-74
2022/08/03 03:36:49;;;;;;;3.00;1.73;;;24.80;63.80;;;;;;6245340;23;20080;-74
2022/08/03 03:39:14;;;;;;;3.92;1.90;;;24.80;63.60;;;;;;6245823;22;20008;-71
2022/08/03 03:41:40;;;;;;;5.97;2.10;;;24.80;64.10;;;;;;6245641;23;20458;-72
2022/08/03 03:44:06;;;;;;;5.80;1.70;;;24.80;64.60;;;;;;6245473;22;20070;-69
2022/08/03 03:46:32;;;;;;;1.38;1.27;;;24.70;64.60;;;;;;6245426;23;20046;-71
2022/08/03 03:48:58;;;;;;;2.22;1.70;;;24.70;64.30;;;;;;6245616;22;20050;-70
2022/08/03 03:51:24;;;;;;;2.70;1.70;;;24.60;64.30;;;;;;6245434;22;20030;-75
2022/08/03 03:53:57;;;;;;;4.30;1.60;;;24.60;65.00;;;;;;6245198;23;20008;-73
2022/08/03 03:56:23;;;;;;;4.63;1.65;;;24.60;65.00;;;;;;6245829;22;20012;-75
2022/08/03 03:58:49;;;;;;;2.70;1.63;;;24.60;65.10;;;;;;6245384;22;20006;-69
2022/08/03 04:01:15;;;;;;;3.63;1.95;;;24.60;65.00;;;;;;6245486;23;20437;-70
2022/08/03 04:03:41;;;;;;;4.32;1.63;;;24.60;64.80;;;;;;6245162;22;20438;-75
2022/08/03 04:11:39;;;;;;;3.15;1.90;;;24.50;64.80;;;;;;6245449;23;20408;-74
2022/08/03 04:14:13;;;;;;;2.72;1.63;;;24.50;65.10;;;;;;6245307;22;20000;-70
2022/08/03 04:16:41;;;;;;;4.03;1.90;;;24.50;65.40;;;;;;6245122;22;20012;-76
2022/08/03 04:19:12;;;;;;;2.97;1.63;;;24.50;65.40;;;;;;6245011;22;20000;-72
2022/08/03 04:21:42;;;;;;;2.88;1.65;;;24.50;65.40;;;;;;6245092;22;20331;-72
2022/08/03 04:24:10;;;;;;;3.42;1.50;;;24.50;65.20;;;;;;6245375;22;20004;-74
2022/08/03 04:26:39;;;;;;;7.13;2.10;;;24.40;65.00;;;;;;6244911;22;20427;-76
2022/08/03 04:29:08;;;;;;;10.10;1.77;;;24.40;65.60;;;;;;6245204;22;20080;-78
2022/08/03 04:31:35;;;;;;;3.42;1.70;;;24.40;65.40;;;;;;6246687;22;20441;-75
2022/08/03 04:34:01;;;;;;;8.63;2.20;;;24.40;65.70;;;;;;6247349;22;20423;-74
2022/08/03 04:36:31;;;;;;;3.45;2.00;;;24.40;66.10;;;;;;6246764;22;20007;-73
2022/08/03 04:39:09;;;;;;;4.60;2.08;;;24.30;66.30;;;;;;6245319;22;20005;-73
2022/08/03 04:41:36;;;;;;;6.40;2.40;;;24.40;66.30;;;;;;6246571;22;20011;-74
2022/08/03 04:44:04;;;;;;;5.07;2.30;;;24.40;66.10;;;;;;6247065;22;20008;-73
2022/08/03 04:46:38;;;;;;;6.85;2.40;;;24.40;66.30;;;;;;6247396;22;20008;-73
2022/08/03 04:49:06;;;;;;;6.15;2.13;;;24.40;66.20;;;;;;6247176;22;20058;-74
2022/08/03 04:51:33;;;;;;;9.23;2.42;;;24.30;66.30;;;;;;6246655;22;20039;-73
2022/08/03 04:53:59;;;;;;;8.32;3.15;;;24.40;66.20;;;;;;6246846;22;20012;-72
2022/08/03 04:56:25;;;;;;;5.10;1.83;;;24.40;66.40;;;;;;6246927;22;20202;-73
2022/08/03 04:58:52;;;;;;;4.78;1.58;;;24.40;66.50;;;;;;6246880;23;20371;-72
2022/08/03 05:01:19;;;;;;;2.63;1.63;;;24.50;66.20;;;;;;6246793;22;20046;-73
2022/08/03 05:03:45;;;;;;;1.90;1.77;;;24.50;66.20;;;;;;6246482;22;20016;-73
2022/08/03 05:06:11;;;;;;;4.55;1.88;;;24.50;65.90;;;;;;6246617;22;20415;-73
2022/08/03 05:08:38;;;;;;;5.70;1.58;;;24.60;65.60;;;;;;6246747;22;20054;-73
2022/08/03 05:11:03;;;;;;;2.45;1.40;;;24.60;65.50;;;;;;6246584;22;20418;-72
2022/08/03 05:13:29;;;;;;;2.75;1.60;;;24.60;64.90;;;;;;6246528;22;20000;-73
2022/08/03 05:15:55;;;;;;;4.55;1.70;;;24.60;64.80;;;;;;6246677;23;20000;-73
2022/08/03 05:18:21;;;;;;;4.10;1.70;;;24.70;64.60;;;;;;6246656;23;20016;-73
2022/08/03 05:20:46;;;;;;;2.53;1.40;;;24.70;64.00;;;;;;6246686;23;20008;-73
2022/08/03 05:23:12;;;;;;;3.97;1.60;;;24.80;63.90;;;;;;6246441;23;20066;-73
2022/08/03 05:25:38;;;;;;;3.45;1.48;;;24.80;63.90;;;;;;6246458;23;20079;-70
2022/08/03 05:28:04;;;;;;;3.95;1.60;;;24.80;63.60;;;;;;6246122;23;20016;-73
2022/08/03 05:30:30;;;;;;;4.78;1.60;;;24.90;63.50;;;;;;6246388;22;20016;-73
2022/08/03 05:32:55;;;;;;;2.40;1.27;;;24.90;63.40;;;;;;6246664;22;20075;-73
2022/08/03 05:35:24;;;;;;;5.57;1.50;;;25.00;63.00;;;;;;6246402;23;20101;-73
2022/08/03 05:37:50;;;;;;;2.33;1.45;;;25.00;63.00;;;;;;6246320;22;20000;-73
2022/08/03 05:40:15;;;;;;;2.00;1.38;;;25.00;62.70;;;;;;6245894;22;20004;-74
2022/08/03 05:42:41;;;;;;;3.78;1.38;;;25.10;62.20;;;;;;6245399;23;20083;-73
2022/08/03 05:45:13;;;;;;;4.70;1.33;;;25.10;62.10;;;;;;6246605;22;20303;-73
2022/08/03 05:47:43;;;;;;;2.33;1.40;;;25.20;62.20;;;;;;6246793;22;20066;-73
2022/08/03 05:50:13;;;;;;;3.38;1.40;;;25.20;62.10;;;;;;6246141;22;20004;-73
2022/08/03 05:52:39;;;;;;;2.58;1.40;;;25.30;62.10;;;;;;6246370;22;20058;-73
2022/08/03 05:55:06;;;;;;;3.03;1.50;;;25.30;61.90;;;;;;6246213;22;20003;-73
2022/08/03 05:57:32;;;;;;;4.68;1.33;;;25.30;61.70;;;;;;6246637;22;20316;-73
2022/08/03 05:59:58;;;;;;;5.50;1.52;;;25.40;61.70;;;;;;6246279;22;20007;-73
2022/08/03 06:02:24;;;;;;;5.43;1.50;;;25.40;61.60;;;;;;6246205;23;20008;-73
2022/08/03 06:04:50;;;;;;;2.83;1.40;;;25.50;61.50;;;;;;6244462;22;20381;-72
2022/08/03 06:07:16;;;;;;;5.28;1.50;;;25.50;61.30;;;;;;6244777;23;20000;-73
2022/08/03 06:09:41;;;;;;;3.38;1.50;;;25.60;61.40;;;;;;6244999;23;19996;-72
2022/08/03 06:12:07;;;;;;;5.28;1.40;;;25.60;61.10;;;;;;6245336;23;20004;-74
2022/08/03 06:14:33;;;;;;;5.93;1.90;;;25.60;60.90;;;;;;6245009;23;20438;-73
2022/08/03 06:16:58;;;;;;;3.33;1.42;;;25.70;60.70;;;;;;6245752;23;20521;-73
2022/08/03 06:19:26;;;;;;;3.33;1.42;;;25.70;60.40;;;;;;6244940;23;20418;-72
2022/08/03 06:21:52;;;;;;;4.20;1.30;;;25.70;60.40;;;;;;6245563;22;20035;-72
2022/08/03 06:24:17;;;;;;;7.32;1.50;;;25.80;60.40;;;;;;6245269;23;20407;-72
2022/08/03 06:26:43;;;;;;;5.68;1.60;;;25.90;60.40;;;;;;6244931;23;20320;-70
2022/08/03 06:29:09;;;;;;;4.43;1.58;;;25.90;60.40;;;;;;6245155;23;19996;-71
2022/08/03 06:31:35;;;;;;;5.68;1.27;;;26.00;60.40;;;;;;6243224;23;20906;-71
2022/08/03 06:34:02;;;;;;;4.28;1.30;;;26.00;60.20;;;;;;6244999;22;20032;-71
2022/08/03 06:36:30;;;;;;;1.75;1.27;;;26.10;60.20;;;;;;6244879;22;20354;-71
2022/08/03 06:38:57;;;;;;;3.60;1.45;;;26.20;60.50;;;;;;6245368;22;20007;-73
2022/08/03 06:41:23;;;;;;;3.22;1.40;;;26.20;60.20;;;;;;6245398;22;20431;-71
2022/08/03 06:43:48;;;;;;;3.20;1.65;;;26.30;59.90;;;;;;6244999;23;20015;-70
2022/08/03 06:46:15;;;;;;;3.45;1.50;;;26.30;59.80;;;;;;6244965;23;20014;-70
2022/08/03 06:48:40;;;;;;;2.90;1.30;;;26.40;59.70;;;;;;6244727;22;20403;-70
2022/08/03 06:51:07;;;;;;;6.57;1.48;;;26.50;59.40;;;;;;6244576;23;19996;-72
2022/08/03 06:53:33;;;;;;;2.58;1.33;;;26.50;59.30;;;;;;6244622;22;20079;-72
2022/08/03 06:55:58;;;;;;;6.55;1.30;;;26.50;59.30;;;;;;6244584;23;20027;-72
2022/08/03 06:58:24;;;;;;;3.40;1.30;;;26.60;59.20;;;;;;6245174;23;20011;-71
2022/08/03 07:00:50;;;;;;;2.47;1.25;;;26.60;58.80;;;;;;6245345;22;19996;-74
2022/08/03 07:03:16;;;;;;;4.85;1.25;;;26.70;58.50;;;;;;6244593;23;20035;-71
2022/08/03 07:05:42;;;;;;;4.07;1.40;;;26.80;58.40;;;;;;6239940;22;20504;-71
2022/08/03 07:08:08;;;;;;;2.15;1.25;;;26.80;58.20;;;;;;6244989;22;20000;-73
2022/08/03 07:10:35;;;;;;;3.42;1.20;;;26.90;58.20;;;;;;6245467;23;20004;-67
2022/08/03 07:13:00;;;;;;;3.80;1.30;;;27.00;58.00;;;;;;6245811;22;20012;-66
2022/08/03 07:15:26;;;;;;;2.65;1.25;;;27.00;57.80;;;;;;6246058;22;20430;-67
2022/08/03 07:17:52;;;;;;;2.30;1.05;;;27.10;57.90;;;;;;6245854;22;20556;-66
2022/08/03 07:20:18;;;;;;;4.05;1.20;;;27.10;57.60;;;;;;6245389;22;20091;-66
2022/08/03 07:22:44;;;;;;;3.08;1.15;;;27.20;57.60;;;;;;6245376;22;20099;-74
2022/08/03 07:25:10;;;;;;;2.65;1.23;;;27.30;57.40;;;;;;6245563;22;20050;-70
2022/08/03 07:27:37;;;;;;;2.63;1.25;;;27.40;56.80;;;;;;6245553;22;20020;-70
2022/08/03 07:30:06;;;;;;;7.38;1.10;;;27.40;56.40;;;;;;6245649;23;20031;-71
2022/08/03 07:32:32;;;;;;;2.35;1.27;;;27.50;56.30;;;;;;6245820;22;20008;-72
2022/08/03 07:34:58;;;;;;;2.33;1.00;;;27.50;56.00;;;;;;6245193;23;20327;-70
2022/08/03 07:37:23;;;;;;;3.00;1.10;;;27.60;55.60;;;;;;6245308;22;20083;-68
2022/08/03 07:39:49;;;;;;;3.80;1.20;;;27.60;55.60;;;;;;6245228;23;20007;-71
2022/08/03 07:42:15;;;;;;;3.90;1.15;;;27.70;54.90;;;;;;6245331;23;20046;-71
2022/08/03 07:44:40;;;;;;;3.92;1.20;;;27.80;54.60;;;;;;6245581;23;20027;-72
2022/08/03 07:47:06;;;;;;;4.47;1.17;;;27.90;54.70;;;;;;6245641;23;20004;-72
2022/08/03 07:49:31;;;;;;;6.43;1.30;;;27.90;54.40;;;;;;6245780;22;20080;-74
2022/08/03 07:54:41;;;;;;;6.07;1.10;;;28.10;52.90;;;;;;6245560;23;20020;-70
2022/08/03 07:57:07;;;;;;;8.20;1.05;;;28.20;52.50;;;;;;6245724;23;20008;-66
2022/08/03 07:59:34;;;;;;;6.25;1.23;;;28.30;52.60;;;;;;6245456;22;20423;-65
2022/08/03 08:01:59;;;;;;;3.15;1.10;;;28.40;51.50;;;;;;6245588;22;20373;-73
2022/08/03 08:04:25;;;;;;;8.75;1.30;;;28.40;51.20;;;;;;6245132;22;20004;-72
2022/08/03 08:06:51;;;;;;;2.95;1.00;;;28.40;51.00;;;;;;6246365;22;19996;-66
2022/08/03 08:09:16;;;;;;;1.65;1.05;;;28.50;51.00;;;;;;6246083;23;20011;-72
2022/08/03 08:11:42;;;;;;;2.97;1.10;;;28.50;50.60;;;;;;6247185;22;20000;-65
2022/08/03 08:14:08;;;;;;;6.22;0.98;;;28.50;50.60;;;;;;6246582;22;20000;-72
2022/08/03 08:16:34;;;;;;;1.67;0.93;;;28.60;50.50;;;;;;6247427;22;20430;-71
2022/08/03 08:19:01;;;;;;;2.35;1.13;;;28.70;50.40;;;;;;6246015;23;20425;-66
2022/08/03 08:21:26;;;;;;;7.38;1.27;;;28.70;50.30;;;;;;6247274;22;20004;-65
2022/08/03 08:23:52;;;;;;;6.93;1.08;;;28.70;50.20;;;;;;6246849;23;20415;-65
2022/08/03 08:26:18;;;;;;;3.58;1.00;;;28.80;50.20;;;;;;6246742;23;20057;-66
2022/08/03 08:28:44;;;;;;;4.07;1.10;;;28.90;49.80;;;;;;6246538;22;20024;-71
2022/08/03 08:31:09;;;;;;;1.60;0.98;;;28.90;49.50;;;;;;6246763;22;20072;-72
2022/08/03 08:33:35;;;;;;;4.63;1.10;;;29.00;49.30;;;;;;6246754;23;20430;-66
2022/08/03 08:36:01;;;;;;;1.63;0.93;;;29.00;49.30;;;;;;6246829;23;20040;-67
2022/08/03 08:38:26;;;;;;;3.15;0.90;;;29.10;49.30;;;;;;6245980;23;20011;-72
2022/08/03 08:40:54;;;;;;;1.70;1.00;;;29.20;49.00;;;;;;6247088;23;19997;-67
2022/08/03 08:43:20;;;;;;;2.58;0.90;;;29.20;48.80;;;;;;6247029;22;20043;-68
2022/08/03 08:45:55;;;;;;;2.58;1.23;;;29.30;48.40;;;;;;6247159;23;19996;-68
2022/08/03 08:48:25;;;;;;;2.47;1.17;;;29.30;47.90;;;;;;6247279;22;20004;-68
2022/08/03 08:50:56;;;;;;;1.40;0.80;;;29.40;47.40;;;;;;6247120;22;20003;-67
2022/08/03 08:53:28;;;;;;;7.30;0.98;;;29.40;46.80;;;;;;6247329;22;20050;-68
2022/08/03 08:55:59;;;;;;;2.20;0.85;;;29.50;46.90;;;;;;6246113;22;20327;-67
2022/08/03 08:58:28;;;;;;;5.68;1.00;;;29.50;46.90;;;;;;6246888;22;20012;-71
2022/08/03 09:00:53;;;;;;;6.72;0.90;;;29.50;47.00;;;;;;6247217;22;20022;-68
2022/08/03 09:03:20;;;;;;;3.03;1.10;;;29.60;46.90;;;;;;6247466;22;20083;-70
2022/08/03 09:05:46;;;;;;;3.10;0.80;;;29.70;46.70;;;;;;6246922;22;20004;-67
2022/08/03 09:08:13;;;;;;;1.55;1.00;;;29.80;46.40;;;;;;6246980;22;20000;-72
2022/08/03 09:10:38;;;;;;;3.42;0.88;;;29.80;46.10;;;;;;6246820;22;20000;-70
2022/08/03 09:13:06;;;;;;;1.63;0.90;;;29.80;46.10;;;;;;6246923;23;20008;-66
2022/08/03 09:15:32;;;;;;;2.15;1.13;;;29.90;45.60;;;;;;6246995;22;20000;-70
2022/08/03 09:18:00;;;;;;;1.55;1.00;;;30.00;45.50;;;;;;6246774;22;20012;-67
2022/08/03 09:20:28;;;;;;;2.20;1.02;;;30.10;45.40;;;;;;6246793;22;20065;-68
2022/08/03 09:23:01;;;;;;;3.38;1.00;;;30.10;45.40;;;;;;6246881;22;20008;-70
2022/08/03 09:25:32;;;;;;;5.95;0.95;;;30.20;45.00;;;;;;6247007;22;20423;-69
2022/08/03 09:28:06;;;;;;;;;;;30.30;45.10;;;;;;6246881;22;20070;-70
2022/08/03 09:30:31;;;;;;;8.82;1.30;;;30.30;44.90;;;;;;6247421;22;19907;-69
2022/08/03 09:33:06;;;;;;;1.77;0.80;;;30.30;44.20;;;;;;6246867;23;20008;-68
2022/08/03 09:35:33;;;;;;;3.83;1.08;;;30.40;44.10;;;;;;6247052;22;20102;-72
2022/08/03 09:38:26;;;;;;;3.78;0.95;;;30.40;44.10;;;;;;6247433;22;20008;-70
2022/08/03 09:40:53;;;;;;;1.90;0.70;;;30.40;43.90;;;;;;6247039;22;20004;-75
2022/08/03 09:43:19;;;;;;;2.58;1.08;;;30.50;43.70;;;;;;6247087;22;20320;-73
2022/08/03 09:45:45;;;;;;;2.88;0.80;;;30.50;43.70;;;;;;6246532;22;20012;-73
2022/08/03 09:48:20;;;;;;;6.68;1.23;;;30.50;44.20;;;;;;6246189;23;20004;-68
2022/08/03 09:50:54;;;;;;;1.25;0.80;;;30.60;43.70;;;;;;6246742;22;20027;-69
2022/08/03 09:53:20;;;;;;;2.80;0.98;;;30.70;43.70;;;;;;6246927;22;20012;-67
2022/08/03 09:56:00;;;;;;;6.03;1.25;;;30.70;44.20;;;;;;6246485;22;20062;-68
2022/08/03 09:58:28;;;;;;;5.40;1.00;;;30.80;43.50;;;;;;6246168;22;20000;-71
2022/08/03 10:01:02;;;;;;;1.00;0.90;;;30.90;43.30;;;;;;6246279;22;20000;-73
2022/08/03 10:03:39;;;;;;;1.60;0.90;;;31.00;42.80;;;;;;6246288;22;20065;-69
2022/08/03 10:06:18;;;;;;;2.13;0.95;;;31.00;42.30;;;;;;6246325;22;20078;-68
2022/08/03 10:08:44;;;;;;;13.57;1.42;;;31.10;42.50;;;;;;6246422;22;20003;-70
2022/08/03 10:11:10;;;;;;;3.03;0.98;;;31.10;42.30;;;;;;6246133;22;20091;-70
2022/08/03 10:13:37;;;;;;;1.40;0.90;;;31.10;42.20;;;;;;6246456;22;20046;-70
2022/08/03 10:16:03;;;;;;;0.98;0.80;;;31.10;42.40;;;;;;6245849;23;20046;-69
2022/08/03 10:18:29;;;;;;;1.98;0.90;;;31.10;42.50;;;;;;6246235;22;20079;-71
2022/08/03 10:21:03;;;;;;;3.25;1.00;;;31.10;42.60;;;;;;6246505;22;20008;-73
2022/08/03 10:23:33;;;;;;;2.25;0.95;;;31.20;42.50;;;;;;6246317;22;20043;-73
2022/08/03 10:26:02;;;;;;;3.10;1.13;;;31.30;42.30;;;;;;6246046;22;19997;-74
2022/08/03 10:28:36;;;;;;;2.28;0.70;;;31.40;42.30;;;;;;6245215;22;20024;-71
2022/08/03 10:31:06;;;;;;;3.35;1.00;;;31.50;41.90;;;;;;6246079;22;20095;-71
2022/08/03 10:33:36;;;;;;;4.60;1.17;;;31.50;41.60;;;;;;6246001;22;20004;-68
2022/08/03 10:36:02;;;;;;;3.05;0.65;;;31.60;41.50;;;;;;6246263;22;20020;-69
2022/08/03 10:38:52;;;;;;;4.43;0.85;;;31.60;41.30;;;;;;6246322;22;20008;-68
2022/08/03 10:41:21;;;;;;;1.63;0.90;;;31.70;41.30;;;;;;6245917;22;20098;-71
2022/08/03 10:43:51;;;;;;;1.95;0.93;;;31.70;41.20;;;;;;6245550;22;20450;-69
2022/08/03 10:46:20;;;;;;;0.83;0.80;;;31.80;41.00;;;;;;6246176;22;20062;-73
2022/08/03 10:48:48;;;;;;;1.60;0.95;;;31.80;41.00;;;;;;6245869;22;20283;-72
2022/08/03 10:51:14;;;;;;;2.65;0.90;;;31.80;40.70;;;;;;6248532;22;20000;-70
2022/08/03 10:53:42;;;;;;;0.93;0.68;;;31.90;40.70;;;;;;6245955;22;20087;-68
2022/08/03 10:59:19;;;;;;;4.93;0.95;;;31.90;40.80;;;;;;6245945;23;20100;-69
2022/08/03 11:01:49;;;;;;;1.35;0.88;;;32.00;40.90;;;;;;6246089;22;20026;-68
2022/08/03 11:04:20;;;;;;;1.77;0.90;;;32.00;40.80;;;;;;6246152;23;20032;-67
2022/08/03 11:06:47;;;;;;;1.25;0.85;;;32.10;40.90;;;;;;6245716;22;20000;-71
2022/08/03 11:09:15;;;;;;;1.33;0.80;;;32.10;40.30;;;;;;6245976;22;20000;-68
2022/08/03 11:11:42;;;;;;;1.85;0.88;;;32.20;40.30;;;;;;6245969;22;20004;-70
2022/08/03 11:14:09;;;;;;;2.00;0.93;;;32.20;40.10;;;;;;6245918;22;20035;-68
2022/08/03 11:16:38;;;;;;;1.98;1.02;;;32.30;40.00;;;;;;6245527;23;20066;-68
2022/08/03 11:19:06;;;;;;;0.90;0.70;;;32.30;39.80;;;;;;6244203;22;20003;-69
2022/08/03 11:21:49;;;;;;;1.73;0.80;;;32.30;39.60;;;;;;6242283;22;20071;-72
2022/08/03 11:24:52;;;;;;;1.92;1.02;;;32.40;39.50;;;;;;6242314;23;20023;-68
2022/08/03 11:27:23;;;;;;;5.07;0.93;;;32.50;39.20;;;;;;6227522;23;20020;-70
2022/08/03 11:30:04;;;;;;;0.70;0.70;;;32.50;39.50;;;;;;6245420;22;19996;-69
2022/08/03 11:32:39;;;;;;;4.13;0.80;;;32.50;39.10;;;;;;6244915;22;20018;-70
2022/08/03 11:35:13;;;;;;;1.00;0.70;;;32.60;38.90;;;;;;6244816;23;20481;-70
2022/08/03 11:37:57;;;;;;;3.15;0.80;;;32.70;39.00;;;;;;6245107;23;20000;-67
2022/08/03 11:40:46;;;;;;;3.63;0.70;;;32.70;39.00;;;;;;6246885;22;20012;-70
2022/08/03 11:43:21;;;;;;;0.90;0.65;;;32.80;39.00;;;;;;6246943;22;20367;-69
2022/08/03 11:46:00;;;;;;;4.82;0.80;;;32.80;38.70;;;;;;6247231;23;20008;-68
2022/08/03 11:48:33;;;;;;;1.65;0.68;;;32.90;38.60;;;;;;6247544;22;20087;-68
2022/08/03 11:51:03;;;;;;;1.08;0.77;;;32.90;38.10;;;;;;6247211;22;20004;-67
2022/08/03 11:53:30;;;;;;;3.38;0.70;;;33.00;37.90;;;;;;6247097;22;20075;-67
2022/08/03 11:55:59;;;;;;;2.35;1.00;;;33.10;37.50;;;;;;6247262;22;20062;-68
2022/08/03 11:58:26;;;;;;;0.90;0.73;;;33.00;36.90;;;;;;6247203;22;20054;-71
2022/08/03 12:00:51;;;;;;;1.30;0.77;;;32.90;37.10;;;;;;6247617;22;19997;-68
2022/08/03 12:03:19;;;;;;;12.80;0.82;;;32.90;37.40;;;;;;6246968;23;20012;-68
2022/08/03 12:05:52;;;;;;;3.95;0.80;;;32.80;37.60;;;;;;6246462;22;19996;-68
2022/08/03 12:08:29;;;;;;;3.15;0.70;;;32.70;37.60;;;;;;6247239;22;20385;-68
2022/08/03 12:10:57;;;;;;;1.13;0.63;;;32.70;37.40;;;;;;6247821;22;20054;-68
2022/08/03 12:13:25;;;;;;;1.42;0.70;;;32.60;37.40;;;;;;6247106;22;20079;-68
2022/08/03 12:15:53;;;;;;;2.75;0.80;;;32.50;37.40;;;;;;6247305;22;19997;-69
2022/08/03 12:18:20;;;;;;;1.00;0.70;;;32.50;37.40;;;;;;6247210;22;20020;-68
2022/08/03 12:20:47;;;;;;;2.35;0.80;;;32.50;37.40;;;;;;6247083;22;19996;-68
2022/08/03 12:23:13;;;;;;;0.90;0.80;;;32.50;37.70;;;;;;6247166;22;20011;-68
2022/08/03 12:25:41;;;;;;;0.73;0.60;;;32.40;37.60;;;;;;6246917;22;20550;-72
2022/08/03 12:28:22;;;;;;;1.00;0.70;;;32.50;37.50;;;;;;6246605;22;20070;-68
2022/08/03 12:30:51;;;;;;;1.67;0.93;;;32.50;37.30;;;;;;6247180;22;20015;-67
2022/08/03 12:33:27;;;;;;;1.23;0.93;;;32.60;37.40;;;;;;6246936;22;20050;-68
2022/08/03 12:36:08;;;;;;;6.03;0.93;;;32.70;37.50;;;;;;6246535;22;20004;-71
2022/08/03 12:38:38;;;;;;;3.00;0.80;;;32.60;37.40;;;;;;6246724;22;20002;-68
2022/08/03 12:41:10;;;;;;;1.45;0.80;;;32.70;37.40;;;;;;6246129;22;20008;-68
2022/08/03 12:43:36;;;;;;;2.05;0.90;;;32.70;37.60;;;;;;6244022;22;20553;-68
2022/08/03 12:46:13;;;;;;;3.08;1.10;;;32.70;38.10;;;;;;6245350;22;20031;-70
2022/08/03 12:49:05;;;;;;;3.70;0.98;;;32.80;38.60;;;;;;6245226;22;20008;-68
2022/08/03 12:51:34;;;;;;;1.50;0.75;;;32.80;38.60;;;;;;6244744;22;20018;-70
2022/08/03 12:53:59;;;;;;;3.13;0.95;;;32.70;38.80;;;;;;6247188;22;20005;-67
2022/08/03 12:56:25;;;;;;;1.33;0.80;;;32.70;39.10;;;;;;6246656;23;20079;-72
2022/08/03 12:58:51;;;;;;;1.52;0.68;;;32.70;39.50;;;;;;6246952;22;20549;-69
2022/08/03 13:01:18;;;;;;;1.63;0.80;;;32.60;39.80;;;;;;6247275;22;20035;-68
2022/08/03 13:03:48;;;;;;;2.30;0.80;;;32.60;40.10;;;;;;6244116;22;20016;-66
2022/08/03 13:06:15;;;;;;;4.35;1.08;;;32.70;40.80;;;;;;6243686;22;20012;-67
2022/08/03 13:08:42;;;;;;;13.77;1.40;;;32.70;40.80;;;;;;6245727;22;20330;-69